createdAt,value
2019-03-20T00:01:13.517Z,99.90
2019-03-20T00:03:42.549Z,99.90
2019-03-20T00:06:11.824Z,99.90
2019-03-20T00:08:40.689Z,99.90
2019-03-20T00:11:09.838Z,99.90
2019-03-20T00:13:38.645Z,99.90
2019-03-20T00:16:07.481Z,99.90
2019-03-20T00:18:36.625Z,99.90
2019-03-20T00:21:05.724Z,99.90
2019-03-20T00:23:34.809Z,99.90
2019-03-20T00:26:03.708Z,99.90
2019-03-20T00:28:32.500Z,99.90
2019-03-20T00:31:01.284Z,99.90
2019-03-20T00:33:30.404Z,99.90
2019-03-20T00:35:59.239Z,99.90
2019-03-20T00:38:28.461Z,99.90
2019-03-20T00:40:57.325Z,99.90
2019-03-20T00:43:26.236Z,99.90
2019-03-20T00:45:55.306Z,99.90
2019-03-20T00:48:24.076Z,99.90
2019-03-20T00:50:53.216Z,99.90
2019-03-20T00:53:22.068Z,99.90
2019-03-20T00:55:50.862Z,99.90
2019-03-20T00:58:19.980Z,99.90
2019-03-20T01:00:48.844Z,99.90
2019-03-20T01:03:17.708Z,99.90
2019-03-20T01:05:46.509Z,99.90
2019-03-20T01:08:15.452Z,99.90
2019-03-20T01:10:44.316Z,99.90
2019-03-20T01:13:13.420Z,99.90
2019-03-20T01:15:42.301Z,99.90
2019-03-20T01:18:11.079Z,99.90
2019-03-20T01:20:40.264Z,99.90
2019-03-20T01:23:09.653Z,99.90
2019-03-20T01:25:38.521Z,99.90
2019-03-20T01:28:07.562Z,99.90
2019-03-20T01:30:37.320Z,99.90
2019-03-20T01:33:10.414Z,99.90
2019-03-20T01:35:39.538Z,99.90
2019-03-20T01:38:08.559Z,99.90
2019-03-20T01:40:40.022Z,99.90
2019-03-20T01:43:08.418Z,99.90
2019-03-20T01:45:38.026Z,99.90
2019-03-20T01:48:06.973Z,99.90
2019-03-20T01:50:35.846Z,99.90
2019-03-20T01:53:04.842Z,99.90
2019-03-20T01:55:34.009Z,99.90
2019-03-20T01:58:03.124Z,99.90
2019-03-20T02:00:32.121Z,99.90
2019-03-20T02:03:01.318Z,99.90
2019-03-20T02:05:35.702Z,99.90
2019-03-20T02:08:00.921Z,99.90
2019-03-20T02:10:29.851Z,99.90
2019-03-20T02:12:58.979Z,99.90
2019-03-20T02:15:38.124Z,99.90
2019-03-20T02:17:58.707Z,99.90
2019-03-20T02:20:27.509Z,99.90
2019-03-20T02:22:56.304Z,99.90
2019-03-20T02:25:25.405Z,99.90
2019-03-20T02:27:54.205Z,99.90
2019-03-20T02:30:23.010Z,99.90
2019-03-20T02:32:51.863Z,99.90
2019-03-20T02:35:21.105Z,99.90
2019-03-20T02:37:49.884Z,99.90
2019-03-20T02:40:18.727Z,99.90
2019-03-20T02:42:47.558Z,99.90
2019-03-20T02:45:17.200Z,99.90
2019-03-20T02:51:15.281Z,99.90
2019-03-20T02:53:44.124Z,99.90
2019-03-20T02:56:12.920Z,99.90
2019-03-20T02:58:41.965Z,99.90
2019-03-20T03:01:10.794Z,99.90
2019-03-20T03:03:40.005Z,99.90
2019-03-20T03:06:08.885Z,99.90
2019-03-20T03:08:38.022Z,99.90
2019-03-20T03:11:07.420Z,99.90
2019-03-20T03:13:36.949Z,99.90
2019-03-20T03:16:05.855Z,99.90
2019-03-20T03:18:34.649Z,99.90
2019-03-20T03:21:03.636Z,99.90
2019-03-20T03:23:32.500Z,99.90
2019-03-20T03:26:01.577Z,99.90
2019-03-20T03:28:30.534Z,99.90
2019-03-20T03:30:59.414Z,99.90
2019-03-20T03:33:28.234Z,99.90
2019-03-20T03:35:57.068Z,99.90
2019-03-20T03:38:25.862Z,99.90
2019-03-20T03:40:54.889Z,99.90
2019-03-20T03:43:24.566Z,99.90
2019-03-20T03:45:53.699Z,99.90
2019-03-20T03:48:22.822Z,99.90
2019-03-20T03:50:51.648Z,99.90
2019-03-20T03:53:20.427Z,99.90
2019-03-20T03:55:49.286Z,99.90
2019-03-20T03:58:18.335Z,99.90
2019-03-20T04:00:47.683Z,99.90
2019-03-20T04:03:16.496Z,99.90
2019-03-20T04:05:45.305Z,99.90
2019-03-20T04:08:14.445Z,99.90
2019-03-20T04:10:43.253Z,99.90
2019-03-20T04:13:12.133Z,99.90
2019-03-20T04:15:40.988Z,99.90
2019-03-20T04:18:10.204Z,99.90
2019-03-20T04:20:39.244Z,99.90
2019-03-20T04:23:08.632Z,99.90
2019-03-20T04:25:37.782Z,99.90
2019-03-20T04:28:06.569Z,99.90
2019-03-20T04:30:35.877Z,99.90
2019-03-20T04:33:05.697Z,99.90
2019-03-20T04:35:34.668Z,99.90
2019-03-20T04:38:03.566Z,99.90
2019-03-20T04:40:32.642Z,99.90
2019-03-20T04:43:01.476Z,99.90
2019-03-20T04:45:30.329Z,99.90
2019-03-20T04:47:59.128Z,99.90
2019-03-20T04:50:27.955Z,99.90
2019-03-20T04:52:57.345Z,99.90
2019-03-20T04:55:26.130Z,99.90
2019-03-20T04:57:54.956Z,99.90
2019-03-20T05:00:23.972Z,99.90
2019-03-20T05:02:52.877Z,99.90
2019-03-20T05:05:21.700Z,99.90
2019-03-20T05:07:50.571Z,99.90
2019-03-20T05:10:19.549Z,99.90
2019-03-20T05:12:48.446Z,99.90
2019-03-20T05:15:17.700Z,99.90
2019-03-20T05:17:47.219Z,99.90
2019-03-20T05:20:16.025Z,99.90
2019-03-20T05:22:44.944Z,99.90
2019-03-20T05:25:13.910Z,99.90
2019-03-20T05:27:42.817Z,99.90
2019-03-20T05:30:12.511Z,99.90
2019-03-20T05:32:41.415Z,99.90
2019-03-20T05:35:10.868Z,99.90
2019-03-20T05:37:40.065Z,99.90
2019-03-20T05:40:10.402Z,99.90
2019-03-20T05:42:39.297Z,99.90
2019-03-20T05:45:12.421Z,99.90
2019-03-20T05:47:41.418Z,99.90
2019-03-20T05:50:11.315Z,99.90
2019-03-20T05:52:40.208Z,99.90
2019-03-20T05:55:09.344Z,99.90
2019-03-20T05:57:38.564Z,99.90
2019-03-20T06:00:08.892Z,99.90
2019-03-20T06:02:37.692Z,99.90
2019-03-20T06:05:08.505Z,99.90
2019-03-20T06:07:37.878Z,99.90
2019-03-20T06:10:08.311Z,99.90
2019-03-20T06:12:37.120Z,99.90
2019-03-20T06:15:08.857Z,99.90
2019-03-20T06:17:37.745Z,99.90
2019-03-20T06:20:06.970Z,99.90
2019-03-20T06:22:36.137Z,99.90
2019-03-20T06:25:05.737Z,99.90
2019-03-20T06:27:34.620Z,99.90
2019-03-20T06:30:03.821Z,99.90
2019-03-20T06:32:32.744Z,99.90
2019-03-20T06:35:01.642Z,99.90
2019-03-20T06:37:32.695Z,99.90
2019-03-20T06:40:01.355Z,99.90
2019-03-20T06:42:30.242Z,99.90
2019-03-20T06:44:59.326Z,99.90
2019-03-20T06:47:28.139Z,99.90
2019-03-20T06:49:56.961Z,99.90
2019-03-20T06:52:25.788Z,99.90
2019-03-20T06:54:54.581Z,99.90
2019-03-20T06:57:23.429Z,99.90
2019-03-20T07:00:36.705Z,99.90
2019-03-20T07:03:09.136Z,99.90
2019-03-20T07:05:50.658Z,99.90
2019-03-20T07:08:20.590Z,99.90
2019-03-20T07:11:10.686Z,99.90
2019-03-20T07:13:39.583Z,99.90
2019-03-20T07:16:08.511Z,99.90
2019-03-20T07:18:37.434Z,99.90
2019-03-20T07:21:06.664Z,99.90
2019-03-20T07:23:35.788Z,99.90
2019-03-20T07:26:04.849Z,99.90
2019-03-20T07:28:33.656Z,99.90
2019-03-20T07:31:02.521Z,99.90
2019-03-20T07:33:31.407Z,99.90
2019-03-20T07:36:00.693Z,99.90
2019-03-20T07:38:29.583Z,99.90
2019-03-20T07:40:58.391Z,99.90
2019-03-20T07:43:46.405Z,99.00
2019-03-20T07:46:15.273Z,98.70
2019-03-20T07:48:44.165Z,98.50
2019-03-20T07:51:13.213Z,96.60
2019-03-20T07:53:42.182Z,97.50
2019-03-20T07:56:11.317Z,95.80
2019-03-20T07:58:40.117Z,96.10
2019-03-20T08:01:08.987Z,95.90
2019-03-20T08:03:37.795Z,94.20
2019-03-20T08:06:06.768Z,92.40
2019-03-20T08:08:35.660Z,90.70
2019-03-20T08:11:04.601Z,91.40
2019-03-20T08:13:33.392Z,90.40
2019-03-20T08:16:04.026Z,90.30
2019-03-20T08:18:32.873Z,89.50
2019-03-20T08:21:01.676Z,86.40
2019-03-20T08:23:30.548Z,83.60
2019-03-20T08:25:59.841Z,80.80
2019-03-20T08:28:28.642Z,79.30
2019-03-20T08:30:57.438Z,77.30
2019-03-20T08:33:26.524Z,78.00
2019-03-20T08:35:55.562Z,76.70
2019-03-20T08:38:24.446Z,75.90
2019-03-20T08:40:53.302Z,73.10
2019-03-20T08:43:22.225Z,72.40
2019-03-20T08:45:51.041Z,71.00
2019-03-20T08:48:19.872Z,70.00
2019-03-20T08:50:48.792Z,68.40
2019-03-20T08:53:17.608Z,69.20
2019-03-20T08:55:46.408Z,65.80
2019-03-20T08:58:16.787Z,65.50
2019-03-20T09:00:45.710Z,66.20
2019-03-20T09:03:14.720Z,64.10
2019-03-20T09:05:43.529Z,65.20
2019-03-20T09:08:12.340Z,64.00
2019-03-20T09:10:41.229Z,63.20
2019-03-20T09:13:10.065Z,61.90
2019-03-20T09:15:38.901Z,62.30
2019-03-20T09:18:07.800Z,61.20
2019-03-20T09:20:36.580Z,60.30
2019-03-20T09:23:05.453Z,58.50
2019-03-20T09:25:34.259Z,57.40
2019-03-20T09:28:03.464Z,56.80
2019-03-20T09:30:32.345Z,56.80
2019-03-20T09:33:01.192Z,54.50
2019-03-20T09:35:30.077Z,54.40
2019-03-20T09:37:58.927Z,54.20
2019-03-20T09:40:27.732Z,54.10
2019-03-20T09:42:56.519Z,51.80
2019-03-20T09:45:25.473Z,52.30
2019-03-20T09:47:54.397Z,51.00
2019-03-20T09:50:23.274Z,49.90
2019-03-20T09:52:52.205Z,51.30
2019-03-20T09:55:21.559Z,50.00
2019-03-20T09:57:50.732Z,49.40
2019-03-20T10:00:21.068Z,47.30
2019-03-20T10:02:50.248Z,45.90
2019-03-20T10:05:19.387Z,44.40
2019-03-20T10:07:48.321Z,44.00
2019-03-20T10:10:21.380Z,44.30
2019-03-20T10:12:50.288Z,39.80
2019-03-20T10:15:19.349Z,40.00
2019-03-20T10:17:48.564Z,40.90
2019-03-20T10:20:18.484Z,41.80
2019-03-20T10:22:47.367Z,41.60
2019-03-20T10:25:16.677Z,38.10
2019-03-20T10:27:45.614Z,39.20
2019-03-20T10:30:17.032Z,37.20
2019-03-20T10:32:46.180Z,36.70
2019-03-20T10:35:15.149Z,35.80
2019-03-20T10:37:43.989Z,35.40
2019-03-20T10:40:14.662Z,36.00
2019-03-20T10:42:43.695Z,34.90
2019-03-20T10:45:13.188Z,34.40
2019-03-20T10:47:42.075Z,35.00
2019-03-20T10:50:13.229Z,34.40
2019-03-20T10:52:42.131Z,33.00
2019-03-20T10:55:11.326Z,33.10
2019-03-20T10:57:40.220Z,33.50
2019-03-20T11:00:16.699Z,33.80
2019-03-20T11:02:45.998Z,32.40
2019-03-20T11:05:16.337Z,32.20
2019-03-20T11:07:45.674Z,32.10
2019-03-20T11:10:18.372Z,32.90
2019-03-20T11:12:47.264Z,33.10
2019-03-20T11:15:16.305Z,34.00
2019-03-20T11:17:45.376Z,35.90
2019-03-20T11:20:15.656Z,33.10
2019-03-20T11:22:44.749Z,32.30
2019-03-20T11:25:15.003Z,31.80
2019-03-20T11:27:44.057Z,32.00
2019-03-20T11:30:24.158Z,32.00
2019-03-20T11:32:53.211Z,31.50
2019-03-20T11:35:22.132Z,30.80
2019-03-20T11:37:51.104Z,30.30
2019-03-20T11:40:24.848Z,30.00
2019-03-20T11:42:53.934Z,30.00
2019-03-20T11:45:23.663Z,30.30
2019-03-20T11:47:52.983Z,31.00
2019-03-20T11:50:30.044Z,32.20
2019-03-20T11:52:59.002Z,32.00
2019-03-20T11:55:27.914Z,30.60
2019-03-20T11:57:57.146Z,29.90
2019-03-20T12:00:26.254Z,29.00
2019-03-20T12:02:55.388Z,29.50
2019-03-20T12:05:24.360Z,29.70
2019-03-20T12:07:53.172Z,29.60
2019-03-20T12:10:22.496Z,29.10
2019-03-20T12:12:51.393Z,28.30
2019-03-20T12:15:20.632Z,27.90
2019-03-20T12:17:49.698Z,27.70
2019-03-20T12:20:19.408Z,28.00
2019-03-20T12:22:48.392Z,28.30
2019-03-20T12:25:22.495Z,28.60
2019-03-20T12:27:51.375Z,29.40
2019-03-20T12:30:22.225Z,28.50
2019-03-20T12:32:51.046Z,27.80
2019-03-20T12:35:19.896Z,27.20
2019-03-20T12:37:48.795Z,27.30
2019-03-20T12:40:19.826Z,27.90
2019-03-20T12:42:48.789Z,28.50
2019-03-20T12:45:18.974Z,29.30
2019-03-20T12:47:47.860Z,29.10
2019-03-20T12:50:16.734Z,29.10
2019-03-20T12:52:45.700Z,28.80
2019-03-20T12:55:14.737Z,29.20
2019-03-20T12:57:43.953Z,29.50
2019-03-20T13:00:15.625Z,29.60
2019-03-20T13:02:44.630Z,29.30
2019-03-20T13:05:16.761Z,29.30
2019-03-20T13:07:45.830Z,29.20
2019-03-20T13:10:16.252Z,29.40
2019-03-20T13:12:45.369Z,29.30
2019-03-20T13:15:18.764Z,29.00
2019-03-20T13:17:48.013Z,29.60
2019-03-20T13:20:17.012Z,29.30
2019-03-20T13:22:48.014Z,30.10
2019-03-20T13:25:16.938Z,30.00
2019-03-20T13:27:45.760Z,30.40
2019-03-20T13:30:20.706Z,31.80
2019-03-20T13:32:49.732Z,30.30
2019-03-20T13:35:22.832Z,30.80
2019-03-20T13:37:52.651Z,30.30
2019-03-20T13:40:21.769Z,30.40
2019-03-20T13:42:50.738Z,30.30
2019-03-20T13:45:19.859Z,30.40
2019-03-20T13:47:49.276Z,29.80
2019-03-20T13:50:18.253Z,30.80
2019-03-20T13:52:47.232Z,30.00
2019-03-20T13:55:16.365Z,30.50
2019-03-20T13:57:45.889Z,30.80
2019-03-20T14:00:17.020Z,31.00
2019-03-20T14:02:46.173Z,29.90
2019-03-20T14:05:15.365Z,29.90
2019-03-20T14:07:44.397Z,30.70
2019-03-20T14:10:24.614Z,30.80
2019-03-20T14:12:46.309Z,31.60
2019-03-20T14:15:15.535Z,30.20
2019-03-20T14:17:44.433Z,29.40
2019-03-20T14:20:17.756Z,29.30
2019-03-20T14:22:46.716Z,29.10
2019-03-20T14:25:16.245Z,29.50
2019-03-20T14:27:48.076Z,29.30
2019-03-20T14:30:21.833Z,29.10
2019-03-20T14:32:51.555Z,28.50
2019-03-20T14:35:20.578Z,28.50
2019-03-20T14:37:49.711Z,28.70
2019-03-20T14:40:20.800Z,28.20
2019-03-20T14:42:49.873Z,27.10
2019-03-20T14:45:18.850Z,26.80
2019-03-20T14:47:47.817Z,26.80
2019-03-20T14:50:18.414Z,28.50
2019-03-20T14:52:47.380Z,29.60
2019-03-20T14:55:16.500Z,31.00
2019-03-20T14:57:45.355Z,32.00
2019-03-20T15:00:22.126Z,32.60
2019-03-20T15:02:51.280Z,33.00
2019-03-20T15:05:20.636Z,33.40
2019-03-20T15:07:49.539Z,33.50
2019-03-20T15:10:19.432Z,32.80
2019-03-20T15:12:48.424Z,31.90
2019-03-20T15:15:26.152Z,32.10
2019-03-20T15:17:54.971Z,32.70
2019-03-20T15:20:23.812Z,34.30
2019-03-20T15:22:52.635Z,34.20
2019-03-20T15:25:21.710Z,34.00
2019-03-20T15:27:52.128Z,33.80
2019-03-20T15:30:21.111Z,33.70
2019-03-20T15:33:05.022Z,34.40
2019-03-20T15:35:36.333Z,35.30
2019-03-20T15:38:05.228Z,35.40
2019-03-20T15:40:34.060Z,35.70
2019-03-20T15:43:02.964Z,34.20
2019-03-20T15:45:32.064Z,34.00
2019-03-20T15:48:00.992Z,33.60
2019-03-20T15:50:30.366Z,33.90
2019-03-20T15:52:59.349Z,34.00
2019-03-20T15:55:29.490Z,34.50
2019-03-20T15:57:58.421Z,35.10
2019-03-20T16:00:27.411Z,35.10
2019-03-20T16:02:59.441Z,35.10
2019-03-20T16:05:28.288Z,35.80
2019-03-20T16:07:57.536Z,36.60
2019-03-20T16:10:26.360Z,37.80
2019-03-20T16:12:55.306Z,37.30
2019-03-20T16:15:24.310Z,37.30
2019-03-20T16:17:53.637Z,37.20
2019-03-20T16:20:22.769Z,37.40
2019-03-20T16:22:51.609Z,37.50
2019-03-20T16:25:20.613Z,38.50
2019-03-20T16:27:49.596Z,38.50
2019-03-20T16:30:20.087Z,38.30
2019-03-20T16:32:49.062Z,37.90
2019-03-20T16:35:18.001Z,37.70
2019-03-20T16:37:46.889Z,37.90
2019-03-20T16:40:17.686Z,38.00
2019-03-20T16:42:46.592Z,38.50
2019-03-20T16:45:17.642Z,38.40
2019-03-20T16:47:46.538Z,38.40
2019-03-20T16:50:16.221Z,39.00
2019-03-20T16:52:45.201Z,38.40
2019-03-20T16:55:14.257Z,38.60
2019-03-20T16:57:43.234Z,38.90
2019-03-20T17:00:15.225Z,39.00
2019-03-20T17:02:44.325Z,39.30
2019-03-20T17:05:13.286Z,39.50
2019-03-20T17:07:42.120Z,40.10
2019-03-20T17:10:14.344Z,40.30
2019-03-20T17:12:43.320Z,41.00
2019-03-20T17:15:15.547Z,41.50
2019-03-20T17:17:44.524Z,41.40
2019-03-20T17:20:13.429Z,41.30
2019-03-20T17:22:42.675Z,41.90
2019-03-20T17:25:11.661Z,42.70
2019-03-20T17:27:41.032Z,43.20
2019-03-20T17:30:13.776Z,43.90
2019-03-20T17:32:42.660Z,43.90
2019-03-20T17:35:11.761Z,44.40
2019-03-20T17:37:40.970Z,45.20
2019-03-20T17:40:11.353Z,45.50
2019-03-20T17:42:40.187Z,46.20
2019-03-20T17:45:09.761Z,46.70
2019-03-20T17:47:38.661Z,47.10
2019-03-20T17:50:10.054Z,48.10
2019-03-20T17:52:38.952Z,48.20
2019-03-20T17:55:07.976Z,48.50
2019-03-20T17:57:36.818Z,48.30
2019-03-20T18:00:08.099Z,49.10
2019-03-20T18:02:36.981Z,49.40
2019-03-20T18:05:06.180Z,49.40
2019-03-20T18:07:35.100Z,49.20
2019-03-20T18:10:04.463Z,49.40
2019-03-20T18:12:33.552Z,49.40
2019-03-20T18:15:08.850Z,49.70
2019-03-20T18:17:33.456Z,50.40
2019-03-20T18:20:02.309Z,51.20
2019-03-20T18:22:31.212Z,52.10
2019-03-20T18:25:00.341Z,53.20
2019-03-20T18:27:29.276Z,57.20
2019-03-20T18:29:58.210Z,57.90
2019-03-20T18:32:27.079Z,58.30
2019-03-20T18:34:55.908Z,59.10
2019-03-20T18:37:24.728Z,59.80
2019-03-20T18:39:53.561Z,60.30
2019-03-20T18:42:22.816Z,60.60
2019-03-20T18:44:52.009Z,61.10
2019-03-20T18:47:20.841Z,62.20
2019-03-20T18:49:49.762Z,63.20
2019-03-20T18:52:18.566Z,64.20
2019-03-20T18:54:47.448Z,64.60
2019-03-20T18:57:16.308Z,64.50
2019-03-20T18:59:45.157Z,63.80
2019-03-20T19:02:14.267Z,64.30
2019-03-20T19:04:43.124Z,64.90
2019-03-20T19:07:13.766Z,66.00
2019-03-20T19:09:42.777Z,69.80
2019-03-20T19:12:11.913Z,72.00
2019-03-20T19:14:40.947Z,74.30
2019-03-20T19:17:10.204Z,75.70
2019-03-20T19:19:42.394Z,80.10
2019-03-20T19:22:11.452Z,81.70
2019-03-20T19:24:40.299Z,82.60
2019-03-20T19:27:09.317Z,82.10
2019-03-20T19:29:38.396Z,81.70
2019-03-20T19:32:07.373Z,79.50
2019-03-20T19:34:36.493Z,77.60
2019-03-20T19:37:05.849Z,77.20
2019-03-20T19:40:25.411Z,77.30
2019-03-20T19:42:54.261Z,77.00
2019-03-20T19:45:23.167Z,76.50
2019-03-20T19:47:52.084Z,76.30
2019-03-20T19:50:21.198Z,76.90
2019-03-20T19:52:50.385Z,78.30
2019-03-20T19:55:19.391Z,80.20
2019-03-20T19:57:48.308Z,81.80
2019-03-20T20:00:17.430Z,82.40
2019-03-20T20:02:47.037Z,84.70
2019-03-20T20:05:16.547Z,89.10
2019-03-20T20:07:45.586Z,90.20
2019-03-20T20:10:14.901Z,91.00
2019-03-20T20:12:43.787Z,91.50
2019-03-20T20:15:17.515Z,92.30
2019-03-20T20:17:47.181Z,92.90
2019-03-20T20:20:17.537Z,93.30
2019-03-20T20:22:46.783Z,93.60
2019-03-20T20:25:15.933Z,93.80
2019-03-20T20:27:44.795Z,93.90
2019-03-20T20:30:15.214Z,94.20
2019-03-20T20:32:44.097Z,95.00
2019-03-20T20:35:13.140Z,95.30
2019-03-20T20:37:42.036Z,95.60
2019-03-20T20:40:12.904Z,96.10
2019-03-20T20:42:43.205Z,96.20
2019-03-20T20:45:12.552Z,96.30
2019-03-20T20:47:41.425Z,96.40
2019-03-20T20:50:10.903Z,96.50
2019-03-20T20:52:39.855Z,96.70
2019-03-20T20:55:09.629Z,97.00
2019-03-20T20:57:38.424Z,97.30
2019-03-20T21:00:16.980Z,97.20
2019-03-20T21:02:45.944Z,96.90
2019-03-20T21:05:14.847Z,97.00
2019-03-20T21:07:43.708Z,96.70
2019-03-20T21:10:13.766Z,96.30
2019-03-20T21:12:42.981Z,95.80
2019-03-20T21:15:54.761Z,95.90
2019-03-20T21:19:03.842Z,96.70
2019-03-20T21:22:19.616Z,97.10
2019-03-20T21:24:49.018Z,97.10
2019-03-20T21:27:56.285Z,97.50
2019-03-20T21:31:06.529Z,97.90
2019-03-20T21:34:15.728Z,98.50
2019-03-20T21:37:26.579Z,99.10
2019-03-20T21:39:56.219Z,99.50
2019-03-20T21:42:50.944Z,99.90
2019-03-20T21:45:44.365Z,99.90
2019-03-20T21:48:13.667Z,99.90
2019-03-20T21:51:09.658Z,99.90
2019-03-20T21:54:19.955Z,99.90
2019-03-20T21:57:19.571Z,99.90
2019-03-20T22:00:14.807Z,99.90
2019-03-20T22:02:44.780Z,99.90
2019-03-20T22:06:13.090Z,99.90
2019-03-20T22:08:42.417Z,99.90
2019-03-20T22:11:48.193Z,99.90
2019-03-20T22:14:17.690Z,99.90
2019-03-20T22:17:29.449Z,99.90
2019-03-20T22:20:35.753Z,99.90
2019-03-20T22:23:18.961Z,99.90
2019-03-20T22:26:23.688Z,99.90
2019-03-20T22:29:18.412Z,99.90
2019-03-20T22:32:00.211Z,99.90
2019-03-20T22:34:53.755Z,99.90
2019-03-20T22:37:23.878Z,99.90
2019-03-20T22:40:36.903Z,99.90
2019-03-20T22:43:30.719Z,99.90
2019-03-20T22:46:48.413Z,99.90
2019-03-20T22:50:07.553Z,99.90
2019-03-20T22:53:12.033Z,99.90
2019-03-20T22:55:53.755Z,99.90
2019-03-20T22:58:43.976Z,99.90
2019-03-20T23:01:19.872Z,99.90
2019-03-20T23:03:54.035Z,99.90
2019-03-20T23:06:23.368Z,99.90
2019-03-20T23:08:52.691Z,99.90
2019-03-20T23:11:22.016Z,99.90
2019-03-20T23:13:51.351Z,99.90
2019-03-20T23:16:21.119Z,99.90
2019-03-20T23:18:50.516Z,99.90
2019-03-20T23:21:19.836Z,99.90
2019-03-20T23:23:49.416Z,99.90
2019-03-20T23:26:19.106Z,99.90
2019-03-20T23:28:48.689Z,99.90
2019-03-20T23:31:18.014Z,99.90
2019-03-20T23:33:47.392Z,99.90
2019-03-20T23:36:16.812Z,99.90
2019-03-20T23:38:46.773Z,99.90
2019-03-20T23:41:16.145Z,99.90
2019-03-20T23:43:52.936Z,99.90
2019-03-20T23:46:16.836Z,99.90
2019-03-20T23:48:51.894Z,99.90
2019-03-20T23:51:22.212Z,99.90
2019-03-20T23:53:53.781Z,99.90
2019-03-20T23:56:23.372Z,99.90
2019-03-20T23:58:52.783Z,99.90
